Taylortown, Ohio
Current Conditions -  °F | °C
As of 10:52 PM on Wednesday 22 Oct 2014 (Local Time) from KMFD Reporting Station
Broken Clouds Broken Clouds  
Wind Chill: 38°   Ceiling: 3200
Heat Index: 42°   Visibility: 10mi
Dew Point: 40°   Wind: 7mph
Humidity: 92%   Direction: 320°NW
Pressure: 30.24"   Gusts: NA
Location:  40.8848°N, 82.6515°W
Report Text: KMFD 230252Z 32006KT 10SM BKN032 06/04 A3024 RMK AO2 SLP249 T00560044 55001
Loading
Personal Weather Stations






























Interactive Weather Map
Tropical Storm Tracking
New forecast layout! Learn more

10-Day Weather Forecast

Advertisements
Track Severe Weather on mobile